createdAt,value
2023-01-12T00:02:12.497Z,5.70
2023-01-12T00:04:39.409Z,5.72
2023-01-12T00:07:08.034Z,5.77
2023-01-12T00:09:35.127Z,5.81
2023-01-12T00:12:06.678Z,5.81
2023-01-12T00:14:37.608Z,5.83
2023-01-12T00:17:04.468Z,5.80
2023-01-12T00:19:32.800Z,5.81
2023-01-12T00:22:07.036Z,5.86
2023-01-12T00:24:43.547Z,5.87
2023-01-12T00:27:15.229Z,5.89
2023-01-12T00:29:42.195Z,5.91
2023-01-12T00:32:13.503Z,5.92
2023-01-12T00:34:40.012Z,5.93
2023-01-12T00:37:06.624Z,5.91
2023-01-12T00:39:35.127Z,5.90
2023-01-12T00:42:19.978Z,5.84
2023-01-12T00:48:03.464Z,5.69
2023-01-12T00:50:42.074Z,5.63
2023-01-12T01:06:02.213Z,5.56
2023-01-12T01:07:33.468Z,5.06
2023-01-12T01:09:59.927Z,4.92
2023-01-12T01:12:26.440Z,4.81
2023-01-12T01:14:53.547Z,4.74
2023-01-12T01:17:20.142Z,4.76
2023-01-12T01:20:04.757Z,4.81
2023-01-12T01:22:31.279Z,4.85
2023-01-12T01:33:02.638Z,5.15
2023-01-12T01:35:29.215Z,5.19
2023-01-12T01:41:49.226Z,5.09
2023-01-12T01:44:30.656Z,5.00
2023-01-12T01:50:51.355Z,4.82
2023-01-12T01:58:02.228Z,5.08
2023-01-12T02:05:21.185Z,5.15
2023-01-12T02:19:58.767Z,4.47
2023-01-12T02:57:03.449Z,3.77
2023-01-12T03:22:24.542Z,3.24
2023-01-12T03:36:24.196Z,3.16
2023-01-12T03:42:49.204Z,2.84
2023-01-12T03:45:21.448Z,2.75
2023-01-12T03:55:20.049Z,2.46
2023-01-12T03:58:41.094Z,2.37
2023-01-12T04:05:48.742Z,2.22
2023-01-12T04:08:24.267Z,2.16
2023-01-12T04:14:36.535Z,2.05
2023-01-12T04:17:03.361Z,2.03
2023-01-12T04:19:32.612Z,2.04
2023-01-12T04:22:17.814Z,1.98
2023-01-12T04:24:46.359Z,1.89
2023-01-12T04:27:12.916Z,1.81
2023-01-12T04:29:39.378Z,1.75
2023-01-12T04:32:16.528Z,1.69
2023-01-12T04:34:43.407Z,1.59
2023-01-12T04:37:11.939Z,1.55
2023-01-12T04:39:38.973Z,1.50
2023-01-12T04:42:05.607Z,1.45
2023-01-12T04:45:51.520Z,1.40
2023-01-12T04:48:31.155Z,1.36
2023-01-12T04:51:08.486Z,1.30
2023-01-12T04:53:47.243Z,1.23
2023-01-12T04:56:14.643Z,1.15
2023-01-12T04:58:43.749Z,1.10
2023-01-12T05:01:12.021Z,1.04
2023-01-12T05:03:39.115Z,0.95
2023-01-12T05:06:06.595Z,0.89
2023-01-12T05:09:23.930Z,0.82
2023-01-12T05:11:54.916Z,0.79
2023-01-12T05:14:26.462Z,0.77
2023-01-12T05:17:14.201Z,0.72
2023-01-12T05:19:40.836Z,0.66
2023-01-12T05:31:22.016Z,0.72
2023-01-12T05:37:35.138Z,0.72
2023-01-12T05:40:01.654Z,0.72
2023-01-12T06:00:07.266Z,0.70
2023-01-12T06:02:39.671Z,0.72
2023-01-12T06:05:09.448Z,1.00
2023-01-12T06:07:39.667Z,1.15
2023-01-12T06:10:06.338Z,1.24
2023-01-12T06:13:07.772Z,1.32
2023-01-12T06:15:50.292Z,1.38
2023-01-12T06:18:18.708Z,1.39
2023-01-12T06:24:31.231Z,0.96
2023-01-12T06:26:58.616Z,0.81
2023-01-12T06:29:25.144Z,0.69
2023-01-12T06:31:51.811Z,0.60
2023-01-12T06:34:18.471Z,0.52
2023-01-12T06:36:44.998Z,0.47
2023-01-12T06:39:13.203Z,0.44
2023-01-12T06:41:58.029Z,0.43
2023-01-12T06:44:27.543Z,0.40
2023-01-12T06:46:54.150Z,0.40
2023-01-12T06:49:20.684Z,0.38
2023-01-12T06:51:49.097Z,0.35
2023-01-12T06:54:18.833Z,0.32
2023-01-12T06:56:45.648Z,0.32
2023-01-12T06:59:12.670Z,0.32
2023-01-12T07:01:40.442Z,0.29
2023-01-12T07:04:07.483Z,0.25
2023-01-12T07:06:34.599Z,0.25
2023-01-12T07:09:01.090Z,0.24
2023-01-12T07:11:27.557Z,0.22
2023-01-12T07:13:55.318Z,0.21
2023-01-12T07:16:21.914Z,0.27
2023-01-12T07:18:48.431Z,0.30
2023-01-12T07:21:16.782Z,0.34
2023-01-12T07:23:43.761Z,0.40
2023-01-12T07:26:11.127Z,0.44
2023-01-12T07:28:38.089Z,0.48
2023-01-12T07:31:06.629Z,0.63
2023-01-12T07:33:34.428Z,0.73
2023-01-12T07:36:02.265Z,0.88
2023-01-12T07:38:29.752Z,1.08
2023-01-12T07:41:03.112Z,1.51
2023-01-12T07:43:30.453Z,1.85
2023-01-12T07:45:58.050Z,2.06
2023-01-12T07:48:26.527Z,2.29
2023-01-12T07:50:53.574Z,2.36
2023-01-12T07:53:20.365Z,2.42
2023-01-12T07:55:46.980Z,2.49
2023-01-12T07:58:13.513Z,2.58
2023-01-12T08:00:40.060Z,2.74
2023-01-12T08:03:09.307Z,2.85
2023-01-12T08:05:36.987Z,2.92
2023-01-12T08:08:04.810Z,3.09
2023-01-12T08:10:31.777Z,3.26
2023-01-12T08:12:58.428Z,3.39
2023-01-12T08:15:27.673Z,3.50
2023-01-12T08:18:06.213Z,3.58
2023-01-12T08:20:36.051Z,3.69
2023-01-12T08:23:10.726Z,3.88
2023-01-12T08:25:44.614Z,4.07
2023-01-12T08:28:19.588Z,4.20
2023-01-12T08:30:48.712Z,4.27
2023-01-12T08:33:15.993Z,4.35
2023-01-12T08:35:49.699Z,4.45
2023-01-12T08:42:35.648Z,4.60
2023-01-12T08:45:22.397Z,4.74
2023-01-12T08:48:37.967Z,4.81
2023-01-12T08:51:23.766Z,4.94
2023-01-12T08:53:58.000Z,4.98
2023-01-12T08:56:24.804Z,5.13
2023-01-12T09:05:37.299Z,5.68
2023-01-12T09:08:03.965Z,6.01
2023-01-12T09:10:30.504Z,6.32
2023-01-12T09:12:57.028Z,6.61
2023-01-12T09:15:23.916Z,6.88
2023-01-12T09:17:54.261Z,6.96
2023-01-12T09:20:20.896Z,7.15
2023-01-12T09:22:47.950Z,7.16
2023-01-12T09:25:14.532Z,7.06
2023-01-12T09:27:41.041Z,7.06
2023-01-12T09:30:08.359Z,7.06
2023-01-12T09:32:37.731Z,7.28
2023-01-12T09:35:04.656Z,7.40
2023-01-12T09:37:31.156Z,7.25
2023-01-12T09:39:57.867Z,7.48
2023-01-12T09:42:43.123Z,7.83
2023-01-12T09:45:38.112Z,8.21
2023-01-12T09:48:06.757Z,8.45
2023-01-12T09:51:08.874Z,8.75
2023-01-12T09:53:38.335Z,9.01
2023-01-12T09:56:25.067Z,8.64
2023-01-12T09:59:07.874Z,8.28
2023-01-12T10:01:36.899Z,8.29
2023-01-12T10:04:05.177Z,8.22
2023-01-12T10:06:33.101Z,7.85
2023-01-12T10:09:06.731Z,7.64
2023-01-12T10:11:43.496Z,7.70
2023-01-12T10:14:40.803Z,7.35
2023-01-12T10:17:19.411Z,7.30
2023-01-12T10:20:02.973Z,6.83
2023-01-12T10:22:45.764Z,6.59
2023-01-12T10:25:24.770Z,6.46
2023-01-12T10:27:54.381Z,6.44
2023-01-12T10:30:34.554Z,6.53
2023-01-12T10:33:17.330Z,6.73
2023-01-12T10:35:58.892Z,6.92
2023-01-12T10:38:34.654Z,7.25
2023-01-12T10:41:10.357Z,7.31
2023-01-12T10:43:38.512Z,7.21
2023-01-12T10:46:16.869Z,7.28
2023-01-12T10:48:46.646Z,7.57
2023-01-12T10:51:35.938Z,8.11
2023-01-12T10:54:17.745Z,8.86
2023-01-12T10:56:55.199Z,9.15
2023-01-12T10:59:28.733Z,9.02
2023-01-12T11:02:11.861Z,8.76
2023-01-12T11:04:41.444Z,8.31
2023-01-12T11:07:18.887Z,7.93
2023-01-12T11:09:46.510Z,7.56
2023-01-12T11:12:36.787Z,7.36
2023-01-12T11:15:23.548Z,7.37
2023-01-12T11:18:08.750Z,7.36
2023-01-12T11:20:48.659Z,7.21
2023-01-12T11:23:34.255Z,7.19
2023-01-12T11:26:03.527Z,7.26
2023-01-12T11:28:52.318Z,7.64
2023-01-12T11:31:27.026Z,7.81
2023-01-12T11:33:58.708Z,7.90
2023-01-12T11:36:29.176Z,8.39
2023-01-12T11:39:30.379Z,8.86
2023-01-12T11:42:34.073Z,9.13
2023-01-12T11:45:20.359Z,9.12
2023-01-12T11:47:52.896Z,8.72
2023-01-12T11:50:37.610Z,8.32
2023-01-12T11:53:05.987Z,8.06
2023-01-12T11:55:56.562Z,7.70
2023-01-12T11:58:29.088Z,7.53
2023-01-12T12:00:58.428Z,7.66
2023-01-12T12:03:42.931Z,7.58
2023-01-12T12:06:35.687Z,7.63
2023-01-12T12:09:11.756Z,7.67
2023-01-12T12:11:50.358Z,7.59
2023-01-12T12:14:54.950Z,7.55
2023-01-12T12:17:49.662Z,7.86
2023-01-12T12:20:40.128Z,7.57
2023-01-12T12:23:24.590Z,7.84
2023-01-12T12:26:12.696Z,8.18
2023-01-12T12:28:49.701Z,8.06
2023-01-12T12:31:32.644Z,8.07
2023-01-12T12:34:27.710Z,8.28
2023-01-12T12:37:01.624Z,8.60
2023-01-12T12:39:37.605Z,8.89
2023-01-12T12:42:28.299Z,8.90
2023-01-12T12:45:18.256Z,8.89
2023-01-12T12:48:16.099Z,8.90
2023-01-12T12:50:49.579Z,8.63
2023-01-12T12:53:36.042Z,8.38
2023-01-12T12:56:07.235Z,8.04
2023-01-12T12:59:03.649Z,8.32
2023-01-12T13:01:30.178Z,8.70
2023-01-12T13:04:04.966Z,8.74
2023-01-12T13:06:37.374Z,8.79
2023-01-12T13:09:12.705Z,8.57
2023-01-12T13:11:57.794Z,8.46
2023-01-12T13:14:37.737Z,8.41
2023-01-12T13:17:19.546Z,8.46
2023-01-12T13:20:06.178Z,8.42
2023-01-12T13:22:43.964Z,8.31
2023-01-12T13:25:10.447Z,8.27
2023-01-12T13:27:50.921Z,8.41
2023-01-12T13:30:26.451Z,8.55
2023-01-12T13:33:14.764Z,8.65
2023-01-12T13:35:44.342Z,8.73
2023-01-12T13:38:52.543Z,8.65
2023-01-12T13:42:04.655Z,8.68
2023-01-12T13:44:35.153Z,8.68
2023-01-12T13:47:23.703Z,8.72
2023-01-12T13:49:57.104Z,8.74
2023-01-12T13:52:32.355Z,8.82
2023-01-12T13:54:59.392Z,8.94
2023-01-12T13:57:29.510Z,9.04
2023-01-12T14:00:09.497Z,9.19
2023-01-12T14:02:38.641Z,9.42
2023-01-12T14:05:34.391Z,9.23
2023-01-12T14:08:19.026Z,9.28
2023-01-12T14:11:18.211Z,9.28
2023-01-12T14:13:50.529Z,8.89
2023-01-12T14:16:36.404Z,8.77
2023-01-12T14:19:25.560Z,8.58
2023-01-12T14:24:51.297Z,8.32
2023-01-12T14:27:26.127Z,8.26
2023-01-12T14:29:54.023Z,8.16
2023-01-12T14:32:21.862Z,8.13
2023-01-12T14:34:54.916Z,8.05
2023-01-12T14:37:34.830Z,8.05
2023-01-12T14:40:01.724Z,8.00
2023-01-12T14:42:47.021Z,7.97
2023-01-12T14:45:42.078Z,8.02
2023-01-12T14:48:25.148Z,8.05
2023-01-12T14:51:18.846Z,8.07
2023-01-12T14:53:48.038Z,8.00
2023-01-12T14:56:22.883Z,7.98
2023-01-12T14:58:50.271Z,7.93
2023-01-12T15:01:43.216Z,7.90
2023-01-12T15:04:25.198Z,7.84
2023-01-12T15:07:06.459Z,7.74
2023-01-12T15:09:36.914Z,7.59
2023-01-12T15:12:25.216Z,7.49
2023-01-12T15:14:51.700Z,7.44
2023-01-12T15:17:36.418Z,7.29
2023-01-12T15:20:21.396Z,7.20
2023-01-12T15:23:06.189Z,7.12
2023-01-12T15:25:35.942Z,7.03
2023-01-12T15:28:03.747Z,7.00
2023-01-12T15:30:31.982Z,6.92
2023-01-12T15:32:59.342Z,6.80
2023-01-12T15:35:27.651Z,6.84
2023-01-12T15:37:56.860Z,6.82
2023-01-12T15:40:25.325Z,6.79
2023-01-12T15:42:53.440Z,6.64
2023-01-12T15:45:31.985Z,6.54
2023-01-12T15:47:58.528Z,6.39
2023-01-12T15:50:25.214Z,6.29
2023-01-12T15:52:52.725Z,6.23
2023-01-12T15:55:22.096Z,6.12
2023-01-12T15:57:50.777Z,6.10
2023-01-12T16:00:20.927Z,5.97
2023-01-12T16:02:48.807Z,6.02
2023-01-12T16:05:20.945Z,6.05
2023-01-12T16:07:48.844Z,6.02
2023-01-12T16:10:16.573Z,6.07
2023-01-12T16:12:44.205Z,6.09
2023-01-12T16:15:17.477Z,6.13
2023-01-12T16:17:44.538Z,6.12
2023-01-12T16:20:11.808Z,6.11
2023-01-12T16:22:38.532Z,6.12
2023-01-12T16:25:07.107Z,6.10
2023-01-12T16:27:33.711Z,6.07
2023-01-12T16:30:00.273Z,6.12
2023-01-12T16:32:27.125Z,6.10
2023-01-12T16:34:53.961Z,6.02
2023-01-12T16:37:23.004Z,5.88
2023-01-12T16:39:49.621Z,5.96
2023-01-12T16:42:16.225Z,5.95
2023-01-12T16:44:42.738Z,5.91
2023-01-12T16:47:14.918Z,5.94
2023-01-12T16:49:42.272Z,5.93
2023-01-12T16:52:13.465Z,5.91
2023-01-12T16:54:42.550Z,5.94
2023-01-12T16:57:13.705Z,5.86
2023-01-12T16:59:41.044Z,5.73
2023-01-12T17:02:10.815Z,5.56
2023-01-12T17:04:38.287Z,5.52
2023-01-12T17:07:06.245Z,5.44
2023-01-12T17:09:39.653Z,5.41
2023-01-12T17:12:07.200Z,5.39
2023-01-12T17:14:34.844Z,5.41
2023-01-12T17:17:08.299Z,5.42
2023-01-12T17:19:36.415Z,5.48
2023-01-12T17:22:04.578Z,5.55
2023-01-12T17:24:33.057Z,5.51
2023-01-12T17:27:00.467Z,5.48
2023-01-12T17:29:28.465Z,5.57
2023-01-12T17:31:57.173Z,5.74
2023-01-12T17:34:27.335Z,5.74
2023-01-12T17:36:53.845Z,5.70
2023-01-12T17:39:20.476Z,5.68
2023-01-12T17:42:05.307Z,5.61
2023-01-12T17:44:32.039Z,5.60
2023-01-12T17:46:58.542Z,5.61
2023-01-12T17:49:25.105Z,5.55
2023-01-12T17:51:51.899Z,5.51
2023-01-12T17:54:18.544Z,5.40
2023-01-12T17:56:45.607Z,5.28
2023-01-12T17:59:18.267Z,5.18
2023-01-12T18:01:46.138Z,5.13
2023-01-12T18:04:13.222Z,5.14
2023-01-12T18:06:40.161Z,5.06
2023-01-12T18:09:07.063Z,4.96
2023-01-12T18:11:33.844Z,4.85
2023-01-12T18:14:01.275Z,4.88
2023-01-12T18:16:28.735Z,4.93
2023-01-12T18:18:55.540Z,4.96
2023-01-12T18:21:24.866Z,5.04
2023-01-12T18:23:52.696Z,5.03
2023-01-12T18:26:25.953Z,5.04
2023-01-12T18:28:54.029Z,5.00
2023-01-12T18:31:23.737Z,4.99
2023-01-12T18:33:53.859Z,5.03
2023-01-12T18:36:22.037Z,5.05
2023-01-12T18:38:51.817Z,5.08
2023-01-12T18:41:37.952Z,5.10
2023-01-12T18:44:05.740Z,5.10
2023-01-12T18:47:05.624Z,5.07
2023-01-12T18:49:34.434Z,5.14
2023-01-12T18:52:20.800Z,5.11
2023-01-12T18:54:48.325Z,5.10
2023-01-12T18:57:19.599Z,5.12
2023-01-12T18:59:47.404Z,5.17
2023-01-12T19:02:15.349Z,5.12
2023-01-12T19:04:44.930Z,5.04
2023-01-12T19:07:13.920Z,5.05
2023-01-12T19:09:40.409Z,5.04
2023-01-12T19:12:07.027Z,5.00
2023-01-12T19:14:52.023Z,5.05
2023-01-12T19:17:27.876Z,5.02
2023-01-12T19:19:54.810Z,5.02
2023-01-12T19:22:39.929Z,4.96
2023-01-12T19:25:25.307Z,4.90
2023-01-12T19:28:10.138Z,4.73
2023-01-12T19:30:38.097Z,4.60
2023-01-12T19:33:30.736Z,4.56
2023-01-12T19:35:57.330Z,4.59
2023-01-12T19:38:24.033Z,4.63
2023-01-12T19:40:58.221Z,4.77
2023-01-12T19:43:29.802Z,4.73
2023-01-12T19:46:00.549Z,4.81
2023-01-12T19:48:27.228Z,4.91
2023-01-12T19:50:54.272Z,5.06
2023-01-12T19:53:28.081Z,5.05
2023-01-12T19:55:54.626Z,5.09
2023-01-12T19:58:22.194Z,5.09
2023-01-12T20:00:49.720Z,5.04
2023-01-12T20:03:19.052Z,5.09
2023-01-12T20:05:47.579Z,5.03
2023-01-12T20:08:14.969Z,5.03
2023-01-12T20:10:41.477Z,5.10
2023-01-12T20:13:09.024Z,5.09
2023-01-12T20:15:37.922Z,5.05
2023-01-12T20:18:05.969Z,5.00
2023-01-12T20:20:33.631Z,5.16
2023-01-12T20:23:00.225Z,5.11
2023-01-12T20:25:28.183Z,5.04
2023-01-12T20:27:55.319Z,5.03
2023-01-12T20:30:36.835Z,5.10
2023-01-12T20:33:04.818Z,5.14
2023-01-12T20:35:32.370Z,5.21
2023-01-12T20:37:58.975Z,5.21
2023-01-12T20:40:25.464Z,5.38
2023-01-12T20:42:51.935Z,5.53
2023-01-12T20:45:19.032Z,5.59
2023-01-12T20:47:45.641Z,5.58
2023-01-12T20:50:14.089Z,5.63
2023-01-12T20:52:40.980Z,5.50
2023-01-12T20:55:08.024Z,5.40
2023-01-12T20:57:39.025Z,5.42
2023-01-12T21:00:07.093Z,5.44
2023-01-12T21:02:33.707Z,5.46
2023-01-12T21:05:00.213Z,5.62
2023-01-12T21:07:26.785Z,5.62
2023-01-12T21:09:53.292Z,5.55
2023-01-12T21:12:19.924Z,5.54
2023-01-12T21:14:46.522Z,5.46
2023-01-12T21:17:13.096Z,5.43
2023-01-12T21:19:39.588Z,5.42
2023-01-12T21:22:06.131Z,5.45
2023-01-12T21:24:32.671Z,5.46
2023-01-12T21:26:59.247Z,5.45
2023-01-12T21:29:26.230Z,5.49
2023-01-12T21:31:52.828Z,5.49
2023-01-12T21:34:19.407Z,5.48
2023-01-12T21:36:46.169Z,5.46
2023-01-12T21:39:12.720Z,5.38
2023-01-12T21:41:57.791Z,5.28
2023-01-12T21:44:24.267Z,5.32
2023-01-12T21:46:50.865Z,5.36
2023-01-12T21:49:17.429Z,5.37
2023-01-12T21:51:43.921Z,5.27
2023-01-12T21:54:10.716Z,5.31
2023-01-12T21:56:37.419Z,5.19
2023-01-12T21:59:03.930Z,5.02
2023-01-12T22:01:30.927Z,4.81
2023-01-12T22:03:57.587Z,4.59
2023-01-12T22:06:24.143Z,4.41
2023-01-12T22:08:50.680Z,4.27
2023-01-12T22:11:18.035Z,4.09
2023-01-12T22:13:44.710Z,3.97
2023-01-12T22:16:13.775Z,3.81
2023-01-12T22:18:44.703Z,3.67
2023-01-12T22:21:11.361Z,3.54
2023-01-12T22:23:38.561Z,3.51
2023-01-12T22:26:08.910Z,3.43
2023-01-12T22:28:37.984Z,3.36
2023-01-12T22:31:12.263Z,3.25
2023-01-12T22:33:39.171Z,3.23
2023-01-12T22:36:07.294Z,3.16
2023-01-12T22:38:34.100Z,3.10
2023-01-12T22:41:07.898Z,3.07
2023-01-12T22:43:40.586Z,3.06
2023-01-12T22:46:24.645Z,3.06
2023-01-12T22:48:53.177Z,3.01
2023-01-12T22:51:21.114Z,3.03
2023-01-12T22:53:48.705Z,3.08
2023-01-12T22:56:16.381Z,3.17
2023-01-12T22:58:47.801Z,3.31
2023-01-12T23:01:16.135Z,3.33
2023-01-12T23:03:43.180Z,3.39
2023-01-12T23:06:15.310Z,3.31
2023-01-12T23:08:43.470Z,3.24
2023-01-12T23:11:24.632Z,3.30
2023-01-12T23:13:52.173Z,3.44
2023-01-12T23:16:19.289Z,3.50
2023-01-12T23:18:47.252Z,3.47
2023-01-12T23:21:26.284Z,3.46
2023-01-12T23:23:55.436Z,3.47
2023-01-12T23:26:24.865Z,3.48
2023-01-12T23:28:55.743Z,3.33
2023-01-12T23:31:26.240Z,3.24
2023-01-12T23:33:53.325Z,3.17
2023-01-12T23:36:22.838Z,3.16
2023-01-12T23:38:58.014Z,3.10
2023-01-12T23:41:27.616Z,3.11
2023-01-12T23:43:59.340Z,3.06
2023-01-12T23:46:27.662Z,3.02
2023-01-12T23:48:56.149Z,3.02
2023-01-12T23:51:24.099Z,3.02
2023-01-12T23:53:59.611Z,3.05
2023-01-12T23:56:28.752Z,3.17
2023-01-12T23:58:55.488Z,3.32
